Steveston Lifeboat — VOQQ — position and weather

sailwx.info

Track history (hours):
 
Tides and Currents Weather Stations Pressure Air Temp Water Temp Dewpoint Dewpoint Depression Visibility Wind Speed Wind Dir Waves Ship Positions

Steveston Lifeboat

Last reported at 2017-Sep-29 20:26 UTC. Time now 2017-Oct-19 15:19 UTC.
Position N 49°05' W 123°06'.
Warning: this ship's position is 19 days out of date.

Length 14 m.

Type: . MMSI: 316012135.

Date/timePositionNaut miles runAvg speedWind from/ knotsBaromVisibWave heightAir tempDewpointWater temp
2017-Sep-29 20:26N 49°05' W 123°06'4 8.3
2017-Sep-29 20:00N 49°08' W 123°03'  
2017-Sep-25 15:53N 49°08' W 123°03'2 0.1
2017-Sep-24 02:52N 49°07' W 123°05'3 8.1
2017-Sep-24 02:30N 49°09' W 123°02'2 4.4
2017-Sep-24 02:00N 49°10' W 122°59'0 0.0
2017-Sep-24 01:30N 49°10' W 122°59'0 0.0
2017-Sep-24 01:00N 49°10' W 122°59'0 0.0
2017-Sep-24 00:30N 49°10' W 122°59'0 0.0
2017-Sep-24 00:00N 49°10' W 122°59'0 0.0
2017-Sep-23 23:30N 49°10' W 122°59'0 0.0
2017-Sep-23 23:00N 49°10' W 122°59'0 0.0
2017-Sep-23 22:30N 49°10' W 122°59'0 0.0
2017-Sep-23 22:00N 49°10' W 122°59'2 2.3
2017-Sep-23 21:19N 49°10' W 122°56'2 2.8
2017-Sep-23 20:42N 49°11' W 122°55'0 0.0
2017-Sep-23 20:30N 49°11' W 122°55'  
Track history (hours):
 
Tides and Currents Weather Stations Pressure Air Temp Water Temp Dewpoint Dewpoint Depression Visibility Wind Speed Wind Dir Waves Ship Positions

Steveston Lifeboat

Last reported at 2017-Sep-29 20:26 UTC. Time now 2017-Oct-19 15:19 UTC.
Position N 49°05' W 123°06'.
Warning: this ship's position is 19 days out of date.

Length 14 m.

Type: . MMSI: 316012135.

Date/timePositionNaut miles runAvg speedWind from/ knotsBaromVisibWave heightAir tempDewpointWater temp
2017-Sep-29 20:26N 49°05' W 123°06'4 8.3
2017-Sep-29 20:00N 49°08' W 123°03'  
2017-Sep-25 15:53N 49°08' W 123°03'2 0.1
2017-Sep-24 02:52N 49°07' W 123°05'3 8.1
2017-Sep-24 02:30N 49°09' W 123°02'2 4.4
2017-Sep-24 02:00N 49°10' W 122°59'0 0.0
2017-Sep-24 01:30N 49°10' W 122°59'0 0.0
2017-Sep-24 01:00N 49°10' W 122°59'0 0.0
2017-Sep-24 00:30N 49°10' W 122°59'0 0.0
2017-Sep-24 00:00N 49°10' W 122°59'0 0.0
2017-Sep-23 23:30N 49°10' W 122°59'0 0.0
2017-Sep-23 23:00N 49°10' W 122°59'0 0.0
2017-Sep-23 22:30N 49°10' W 122°59'0 0.0
2017-Sep-23 22:00N 49°10' W 122°59'2 2.3
2017-Sep-23 21:19N 49°10' W 122°56'2 2.8
2017-Sep-23 20:42N 49°11' W 122°55'0 0.0
2017-Sep-23 20:30N 49°11' W 122°55'  

Dump ship's entire track history